createdAt,value
2023-04-08T00:00:38.688Z,17.70
2023-04-08T00:01:38.916Z,17.80
2023-04-08T00:02:39.455Z,18.50
2023-04-08T00:03:39.548Z,16.80
2023-04-08T00:04:39.692Z,16.50
2023-04-08T00:05:39.981Z,17.30
2023-04-08T00:06:40.303Z,15.50
2023-04-08T00:07:40.653Z,15.70
2023-04-08T00:08:40.895Z,16.00
2023-04-08T00:09:41.128Z,16.60
2023-04-08T00:10:41.396Z,16.30
2023-04-08T00:11:41.724Z,17.20
2023-04-08T00:12:42.063Z,16.90
2023-04-08T00:13:42.383Z,15.00
2023-04-08T00:14:42.739Z,16.80
2023-04-08T00:15:42.954Z,16.30
2023-04-08T00:16:43.204Z,18.20
2023-04-08T00:17:45.192Z,17.60
2023-04-08T00:18:43.894Z,17.50
2023-04-08T00:19:44.192Z,16.30
2023-04-08T00:20:44.418Z,18.20
2023-04-08T00:21:44.739Z,18.10
2023-04-08T00:22:45.063Z,18.00
2023-04-08T00:23:45.381Z,18.70
2023-04-08T00:24:45.727Z,17.80
2023-04-08T00:25:45.937Z,16.60
2023-04-08T00:26:46.284Z,16.30
2023-04-08T00:27:46.586Z,16.10
2023-04-08T00:28:46.953Z,16.90
2023-04-08T00:29:47.264Z,16.70
2023-04-08T00:30:47.600Z,17.60
2023-04-08T00:31:47.851Z,16.20
2023-04-08T00:32:48.260Z,16.80
2023-04-08T00:33:48.422Z,18.70
2023-04-08T00:34:48.772Z,17.40
2023-04-08T00:35:49.036Z,17.70
2023-04-08T00:36:49.210Z,17.20
2023-04-08T00:37:49.558Z,18.30
2023-04-08T00:38:50.133Z,19.10
2023-04-08T00:39:50.073Z,19.10
2023-04-08T00:40:50.416Z,17.60
2023-04-08T00:41:50.742Z,18.30
2023-04-08T00:42:51.069Z,18.80
2023-04-08T00:43:51.402Z,21.60
2023-04-08T00:44:51.748Z,17.50
2023-04-08T00:45:52.018Z,20.10
2023-04-08T00:46:52.229Z,19.40
2023-04-08T00:47:52.984Z,21.80
2023-04-08T00:48:52.963Z,18.90
2023-04-08T00:49:53.150Z,20.60
2023-04-08T00:50:53.476Z,20.50
2023-04-08T00:51:53.786Z,20.00
2023-04-08T00:52:54.127Z,20.10
2023-04-08T00:53:54.434Z,19.50
2023-04-08T00:54:54.754Z,19.20
2023-04-08T00:55:55.074Z,20.30
2023-04-08T00:56:55.416Z,19.80
2023-04-08T00:57:55.749Z,19.50
2023-04-08T00:58:56.100Z,19.40
2023-04-08T00:59:56.305Z,20.50
2023-04-08T01:00:56.626Z,18.20
2023-04-08T01:01:56.947Z,20.00
2023-04-08T01:02:57.309Z,21.10
2023-04-08T01:03:57.578Z,18.20
2023-04-08T01:04:57.715Z,18.90
2023-04-08T01:05:58.046Z,17.60
2023-04-08T01:06:58.433Z,18.80
2023-04-08T01:07:58.612Z,19.30
2023-04-08T01:08:59.081Z,18.10
2023-04-08T01:09:59.166Z,17.40
2023-04-08T01:10:59.358Z,17.50
2023-04-08T01:11:59.695Z,17.00
2023-04-08T01:13:00.045Z,19.90
2023-04-08T01:14:00.385Z,19.70
2023-04-08T01:15:00.626Z,21.40
2023-04-08T01:16:00.835Z,18.30
2023-04-08T01:17:01.150Z,18.30
2023-04-08T01:18:01.503Z,20.40
2023-04-08T01:19:01.874Z,18.90
2023-04-08T01:20:02.139Z,19.60
2023-04-08T01:21:02.417Z,18.60
2023-04-08T01:22:02.767Z,20.50
2023-04-08T01:23:02.987Z,19.00
2023-04-08T01:24:03.320Z,19.90
2023-04-08T01:25:03.537Z,19.30
2023-04-08T01:26:03.884Z,19.90
2023-04-08T01:27:04.213Z,18.60
2023-04-08T01:28:04.535Z,19.00
2023-04-08T01:29:04.879Z,19.50
2023-04-08T01:30:05.229Z,18.90
2023-04-08T01:31:05.603Z,19.20
2023-04-08T01:32:05.872Z,18.40
2023-04-08T01:33:06.280Z,18.10
2023-04-08T01:34:06.660Z,17.40
2023-04-08T01:35:06.872Z,20.20
2023-04-08T01:36:07.128Z,17.40
2023-04-08T01:37:07.368Z,19.30
2023-04-08T01:38:07.696Z,18.20
2023-04-08T01:39:08.050Z,17.00
2023-04-08T01:40:08.254Z,19.40
2023-04-08T01:41:08.595Z,18.30
2023-04-08T01:42:08.949Z,17.10
2023-04-08T01:43:09.273Z,17.60
2023-04-08T01:44:09.608Z,16.70
2023-04-08T01:45:09.836Z,16.50
2023-04-08T01:46:10.162Z,16.90
2023-04-08T01:47:10.319Z,15.10
2023-04-08T01:48:10.645Z,16.10
2023-04-08T01:49:11.018Z,17.00
2023-04-08T01:50:11.209Z,17.00
2023-04-08T01:51:11.527Z,15.60
2023-04-08T01:52:11.871Z,15.70
2023-04-08T01:53:12.210Z,17.50
2023-04-08T01:54:12.430Z,15.20
2023-04-08T01:55:12.787Z,16.70
2023-04-08T01:56:13.024Z,17.00
2023-04-08T01:57:13.324Z,15.70
2023-04-08T01:58:15.276Z,15.90
2023-04-08T01:59:13.837Z,16.00
2023-04-08T02:00:14.060Z,16.00
2023-04-08T02:01:14.405Z,15.80
2023-04-08T02:02:14.729Z,16.40
2023-04-08T02:03:15.129Z,16.10
2023-04-08T02:04:15.356Z,17.00
2023-04-08T02:05:15.538Z,17.20
2023-04-08T02:06:15.869Z,16.90
2023-04-08T02:07:16.223Z,17.20
2023-04-08T02:08:16.563Z,17.40
2023-04-08T02:09:16.774Z,17.80
2023-04-08T02:10:17.104Z,15.10
2023-04-08T02:11:17.452Z,15.90
2023-04-08T02:12:17.796Z,17.50
2023-04-08T02:13:18.019Z,18.10
2023-04-08T02:14:18.382Z,16.60
2023-04-08T02:15:18.586Z,17.90
2023-04-08T02:16:18.972Z,15.50
2023-04-08T02:17:19.169Z,15.90
2023-04-08T02:18:19.383Z,16.30
2023-04-08T02:19:19.744Z,17.60
2023-04-08T02:20:19.985Z,16.90
2023-04-08T02:21:20.319Z,16.80
2023-04-08T02:22:20.641Z,15.90
2023-04-08T02:23:21.169Z,17.30
2023-04-08T02:24:21.223Z,16.50
2023-04-08T02:25:21.485Z,15.50
2023-04-08T02:26:21.728Z,16.10
2023-04-08T02:27:21.940Z,16.10
2023-04-08T02:28:22.167Z,17.00
2023-04-08T02:29:22.525Z,17.90
2023-04-08T02:30:22.733Z,16.80
2023-04-08T02:31:23.112Z,18.60
2023-04-08T02:32:23.311Z,16.50
2023-04-08T02:33:23.553Z,17.50
2023-04-08T02:34:23.891Z,16.10
2023-04-08T02:35:24.168Z,15.50
2023-04-08T02:36:24.392Z,16.60
2023-04-08T02:37:24.731Z,17.80
2023-04-08T02:38:24.970Z,19.00
2023-04-08T02:39:25.197Z,16.50
2023-04-08T02:40:25.567Z,16.70
2023-04-08T02:41:25.768Z,16.40
2023-04-08T02:42:26.152Z,15.80
2023-04-08T02:43:26.444Z,16.20
2023-04-08T02:44:26.772Z,16.10
2023-04-08T02:45:27.118Z,13.60
2023-04-08T02:46:27.441Z,16.70
2023-04-08T02:47:27.776Z,15.80
2023-04-08T02:48:28.009Z,16.30
2023-04-08T02:49:28.356Z,16.40
2023-04-08T02:50:28.667Z,16.40
2023-04-08T02:51:29.078Z,15.70
2023-04-08T02:52:29.240Z,15.50
2023-04-08T02:53:29.592Z,15.90
2023-04-08T02:54:29.812Z,15.80
2023-04-08T02:55:30.168Z,15.80
2023-04-08T02:56:30.443Z,15.20
2023-04-08T02:57:30.614Z,14.30
2023-04-08T02:58:30.946Z,16.30
2023-04-08T02:59:31.308Z,16.10
2023-04-08T03:00:31.527Z,16.90
2023-04-08T03:01:31.983Z,18.30
2023-04-08T03:02:32.343Z,16.70
2023-04-08T03:03:32.533Z,16.80
2023-04-08T03:04:32.785Z,15.90
2023-04-08T03:05:33.097Z,16.60
2023-04-08T03:06:33.404Z,17.80
2023-04-08T03:07:33.648Z,17.60
2023-04-08T03:08:33.999Z,18.50
2023-04-08T03:09:34.314Z,18.30
2023-04-08T03:10:34.513Z,18.90
2023-04-08T03:11:34.772Z,17.70
2023-04-08T03:12:35.115Z,17.60
2023-04-08T03:13:35.426Z,17.80
2023-04-08T03:14:35.691Z,18.10
2023-04-08T03:15:35.917Z,18.90
2023-04-08T03:16:36.390Z,19.40
2023-04-08T03:17:36.620Z,17.90
2023-04-08T03:18:36.816Z,17.00
2023-04-08T03:19:37.045Z,16.30
2023-04-08T03:20:37.389Z,18.00
2023-04-08T03:21:37.714Z,19.10
2023-04-08T03:22:38.032Z,19.90
2023-04-08T03:23:38.404Z,19.00
2023-04-08T03:24:38.622Z,19.90
2023-04-08T03:25:38.834Z,19.90
2023-04-08T03:26:39.167Z,19.10
2023-04-08T03:27:39.502Z,18.50
2023-04-08T03:28:39.818Z,19.80
2023-04-08T03:29:40.086Z,20.30
2023-04-08T03:30:40.311Z,19.70
2023-04-08T03:31:40.697Z,20.10
2023-04-08T03:32:40.923Z,19.20
2023-04-08T03:33:41.213Z,19.50
2023-04-08T03:34:41.486Z,21.00
2023-04-08T03:35:41.737Z,20.90
2023-04-08T03:36:42.022Z,21.10
2023-04-08T03:37:42.275Z,21.10
2023-04-08T03:38:42.498Z,19.30
2023-04-08T03:39:42.839Z,20.80
2023-04-08T03:40:43.285Z,19.70
2023-04-08T03:41:43.599Z,17.70
2023-04-08T03:42:43.809Z,18.40
2023-04-08T03:43:44.195Z,18.80
2023-04-08T03:44:44.384Z,19.20
2023-04-08T03:45:44.784Z,18.40
2023-04-08T03:46:44.948Z,19.80
2023-04-08T03:47:45.344Z,20.30
2023-04-08T03:48:45.522Z,17.30
2023-04-08T03:49:45.845Z,18.70
2023-04-08T03:50:46.179Z,19.00
2023-04-08T03:51:46.532Z,20.50
2023-04-08T03:52:46.736Z,20.10
2023-04-08T03:53:46.998Z,19.50
2023-04-08T03:54:47.201Z,20.00
2023-04-08T03:55:47.637Z,18.20
2023-04-08T03:56:47.863Z,21.30
2023-04-08T03:57:48.216Z,18.60
2023-04-08T03:58:48.710Z,19.00
2023-04-08T03:59:48.737Z,18.80
2023-04-08T04:00:49.078Z,21.20
2023-04-08T04:01:49.423Z,19.60
2023-04-08T04:02:49.825Z,21.70
2023-04-08T04:03:50.168Z,21.00
2023-04-08T04:04:59.559Z,21.40
2023-04-08T04:05:50.648Z,23.00
2023-04-08T04:06:50.870Z,19.50
2023-04-08T04:07:51.087Z,21.00
2023-04-08T04:08:51.463Z,20.00
2023-04-08T04:09:51.515Z,22.20
2023-04-08T04:10:51.870Z,21.30
2023-04-08T04:11:52.083Z,20.40
2023-04-08T04:12:52.454Z,21.40
2023-04-08T04:13:52.721Z,19.00
2023-04-08T04:14:52.889Z,19.90
2023-04-08T04:15:53.144Z,21.00
2023-04-08T04:16:53.485Z,21.00
2023-04-08T04:17:53.894Z,22.30
2023-04-08T04:18:54.467Z,23.40
2023-04-08T04:19:54.376Z,23.00
2023-04-08T04:20:54.623Z,21.00
2023-04-08T04:21:54.868Z,20.90
2023-04-08T04:22:55.106Z,19.80
2023-04-08T04:23:55.468Z,20.20
2023-04-08T04:24:55.692Z,21.40
2023-04-08T04:25:56.045Z,21.40
2023-04-08T04:26:56.272Z,22.20
2023-04-08T04:27:56.525Z,23.80
2023-04-08T04:28:56.862Z,22.30
2023-04-08T04:29:57.108Z,20.80
2023-04-08T04:30:57.322Z,20.70
2023-04-08T04:31:57.634Z,24.50
2023-04-08T04:32:57.929Z,22.20
2023-04-08T04:33:58.160Z,21.40
2023-04-08T04:34:58.356Z,20.10
2023-04-08T04:35:58.759Z,20.30
2023-04-08T04:36:59.039Z,23.40
2023-04-08T04:37:59.425Z,20.20
2023-04-08T04:38:59.658Z,22.30
2023-04-08T04:39:59.907Z,23.00
2023-04-08T04:41:00.142Z,21.60
2023-04-08T04:42:00.368Z,21.00
2023-04-08T04:43:00.627Z,20.90
2023-04-08T04:44:00.867Z,20.40
2023-04-08T04:45:01.110Z,21.80
2023-04-08T04:46:01.388Z,22.00
2023-04-08T04:47:01.604Z,20.90
2023-04-08T04:48:01.902Z,22.50
2023-04-08T04:49:02.120Z,20.70
2023-04-08T04:50:02.390Z,20.80
2023-04-08T04:51:02.617Z,19.50
2023-04-08T04:52:02.856Z,21.60
2023-04-08T04:53:03.076Z,21.40
2023-04-08T04:54:03.366Z,19.90
2023-04-08T04:55:03.659Z,22.50
2023-04-08T04:56:03.916Z,20.50
2023-04-08T04:57:04.148Z,20.50
2023-04-08T04:58:04.411Z,19.50
2023-04-08T04:59:04.665Z,21.20
2023-04-08T05:00:05.730Z,24.10
2023-04-08T05:01:05.260Z,21.60
2023-04-08T05:02:05.600Z,21.00
2023-04-08T05:03:05.849Z,22.00
2023-04-08T05:04:06.075Z,21.90
2023-04-08T05:05:06.420Z,19.90
2023-04-08T05:06:06.666Z,19.60
2023-04-08T05:07:07.008Z,21.10
2023-04-08T05:08:07.231Z,23.80
2023-04-08T05:09:07.507Z,23.20
2023-04-08T05:10:07.822Z,22.60
2023-04-08T05:11:08.133Z,22.20
2023-04-08T05:12:08.388Z,23.00
2023-04-08T05:13:08.628Z,22.80
2023-04-08T05:14:08.912Z,21.40
2023-04-08T05:15:09.142Z,20.50
2023-04-08T05:16:09.462Z,22.10
2023-04-08T05:17:09.677Z,21.30
2023-04-08T05:18:10.005Z,23.60
2023-04-08T05:19:10.246Z,21.80
2023-04-08T05:20:10.478Z,22.30
2023-04-08T05:21:10.744Z,20.20
2023-04-08T05:22:10.977Z,22.80
2023-04-08T05:23:11.217Z,20.80
2023-04-08T05:24:11.506Z,22.90
2023-04-08T05:25:11.764Z,22.00
2023-04-08T05:26:11.998Z,22.10
2023-04-08T05:27:12.256Z,21.20
2023-04-08T05:28:12.505Z,21.80
2023-04-08T05:29:12.778Z,20.70
2023-04-08T05:30:13.046Z,20.80
2023-04-08T05:31:13.371Z,21.30
2023-04-08T05:32:13.574Z,20.70
2023-04-08T05:33:13.874Z,22.20
2023-04-08T05:34:14.914Z,21.40
2023-04-08T05:35:14.374Z,21.80
2023-04-08T05:36:15.377Z,22.10
2023-04-08T05:37:14.988Z,21.20
2023-04-08T05:38:15.186Z,23.10
2023-04-08T05:39:15.467Z,22.40
2023-04-08T05:40:15.706Z,24.70
2023-04-08T05:41:15.969Z,22.90
2023-04-08T05:42:16.198Z,21.30
2023-04-08T05:43:16.452Z,22.60
2023-04-08T05:44:16.728Z,20.60
2023-04-08T05:45:16.969Z,22.10
2023-04-08T05:46:17.249Z,22.80
2023-04-08T05:47:17.470Z,23.40
2023-04-08T05:48:17.722Z,20.70
2023-04-08T05:49:17.989Z,21.90
2023-04-08T05:50:18.321Z,21.60
2023-04-08T05:51:18.571Z,19.50
2023-04-08T05:52:18.817Z,21.70
2023-04-08T05:53:19.087Z,21.40
2023-04-08T05:54:19.381Z,20.30
2023-04-08T05:55:19.690Z,19.80
2023-04-08T05:56:19.981Z,20.90
2023-04-08T05:57:20.256Z,20.40
2023-04-08T05:58:20.509Z,20.00
2023-04-08T05:59:20.846Z,20.30
2023-04-08T06:00:21.138Z,19.80
2023-04-08T06:01:21.409Z,19.50
2023-04-08T06:02:21.707Z,18.80
2023-04-08T06:03:22.197Z,18.70
2023-04-08T06:04:22.230Z,20.40
2023-04-08T06:05:22.391Z,18.80
2023-04-08T06:06:22.641Z,19.30
2023-04-08T06:07:22.931Z,18.60
2023-04-08T06:08:23.274Z,18.30
2023-04-08T06:09:23.539Z,18.00
2023-04-08T06:10:23.815Z,17.70
2023-04-08T06:11:24.076Z,18.30
2023-04-08T06:12:24.399Z,18.40
2023-04-08T06:13:24.690Z,17.30
2023-04-08T06:14:24.957Z,18.10
2023-04-08T06:15:25.263Z,18.80
2023-04-08T06:16:25.507Z,17.20
2023-04-08T06:17:25.901Z,18.60
2023-04-08T06:18:26.174Z,17.20
2023-04-08T06:19:26.517Z,17.10
2023-04-08T06:20:26.777Z,17.40
2023-04-08T06:21:27.091Z,17.40
2023-04-08T06:22:27.344Z,16.60
2023-04-08T06:23:27.633Z,15.50
2023-04-08T06:24:27.918Z,16.50
2023-04-08T06:25:28.237Z,16.80
2023-04-08T06:26:28.501Z,16.80
2023-04-08T06:27:28.791Z,17.10
2023-04-08T06:28:29.042Z,16.20
2023-04-08T06:29:29.313Z,15.20
2023-04-08T06:30:29.650Z,15.80
2023-04-08T06:31:29.932Z,16.40
2023-04-08T06:32:30.193Z,16.20
2023-04-08T06:33:30.527Z,16.70
2023-04-08T06:34:30.752Z,15.90
2023-04-08T06:35:32.270Z,15.70
2023-04-08T06:36:31.328Z,16.30
2023-04-08T06:37:31.594Z,15.10
2023-04-08T06:38:31.866Z,16.60
2023-04-08T06:39:32.154Z,17.10
2023-04-08T06:40:32.467Z,15.20
2023-04-08T06:41:32.671Z,15.00
2023-04-08T06:42:32.948Z,17.50
2023-04-08T06:43:33.238Z,17.20
2023-04-08T06:44:33.519Z,15.70
2023-04-08T06:45:33.819Z,16.70
2023-04-08T06:46:34.061Z,15.90
2023-04-08T06:47:34.352Z,15.50
2023-04-08T06:48:34.593Z,15.90
2023-04-08T06:49:34.900Z,15.70
2023-04-08T06:50:35.165Z,15.60
2023-04-08T06:51:35.432Z,16.10
2023-04-08T06:52:35.794Z,16.50
2023-04-08T06:53:35.952Z,15.40
2023-04-08T06:54:36.223Z,16.60
2023-04-08T06:55:36.476Z,15.40
2023-04-08T06:56:36.770Z,15.70
2023-04-08T06:57:37.004Z,16.70
2023-04-08T06:58:37.302Z,16.90
2023-04-08T06:59:37.597Z,15.90
2023-04-08T07:00:37.832Z,16.90
2023-04-08T07:01:38.302Z,16.30
2023-04-08T07:02:38.504Z,18.10
2023-04-08T07:03:38.740Z,16.30
2023-04-08T07:04:38.916Z,14.80
2023-04-08T07:05:39.213Z,16.60
2023-04-08T07:06:39.433Z,15.10
2023-04-08T07:07:39.701Z,20.60
2023-04-08T07:08:39.945Z,19.00
2023-04-08T07:09:40.260Z,17.50
2023-04-08T07:10:40.525Z,17.10
2023-04-08T07:11:40.779Z,19.00
2023-04-08T07:12:41.054Z,17.30
2023-04-08T07:13:41.330Z,16.50
2023-04-08T07:14:41.600Z,17.30
2023-04-08T07:15:41.963Z,17.50
2023-04-08T07:16:42.272Z,17.00
2023-04-08T07:17:42.633Z,17.00
2023-04-08T07:18:42.848Z,16.20
2023-04-08T07:19:43.111Z,18.40
2023-04-08T07:20:43.369Z,17.50
2023-04-08T07:21:43.660Z,17.70
2023-04-08T07:22:43.945Z,16.50
2023-04-08T07:23:44.276Z,16.80
2023-04-08T07:24:44.559Z,16.50
2023-04-08T07:25:44.820Z,17.30
2023-04-08T07:26:45.127Z,17.20
2023-04-08T07:27:45.426Z,17.40
2023-04-08T07:28:45.703Z,18.30
2023-04-08T07:29:46.001Z,19.20
2023-04-08T07:30:46.307Z,17.60
2023-04-08T07:31:46.697Z,20.30
2023-04-08T07:32:46.950Z,17.80
2023-04-08T07:33:47.068Z,18.30
2023-04-08T07:34:47.370Z,18.10
2023-04-08T07:35:47.650Z,17.90
2023-04-08T07:36:47.919Z,17.60
2023-04-08T07:37:48.197Z,18.00
2023-04-08T07:38:48.675Z,17.50
2023-04-08T07:39:48.754Z,18.20
2023-04-08T07:40:49.062Z,18.70
2023-04-08T07:41:49.320Z,20.70
2023-04-08T07:42:49.696Z,20.90
2023-04-08T07:43:49.958Z,20.60
2023-04-08T07:44:50.200Z,19.90
2023-04-08T07:45:50.492Z,18.30
2023-04-08T07:46:50.706Z,19.00
2023-04-08T07:47:51.009Z,18.90
2023-04-08T07:48:51.373Z,18.50
2023-04-08T07:49:51.541Z,18.50
2023-04-08T07:51:08.888Z,20.30
2023-04-08T07:51:53.037Z,19.30
2023-04-08T07:52:52.347Z,18.00
2023-04-08T07:53:52.667Z,19.30
2023-04-08T07:54:52.912Z,21.00
2023-04-08T07:55:53.191Z,21.70
2023-04-08T07:56:53.495Z,22.10
2023-04-08T07:57:53.778Z,21.00
2023-04-08T07:58:54.286Z,20.40
2023-04-08T07:59:54.298Z,21.80
2023-04-08T08:00:54.581Z,21.60
2023-04-08T08:01:54.949Z,21.80
2023-04-08T08:02:55.291Z,23.20
2023-04-08T08:03:55.870Z,23.70
2023-04-08T08:04:55.874Z,24.30
2023-04-08T08:05:56.111Z,21.80
2023-04-08T08:06:56.370Z,21.00
2023-04-08T08:07:56.676Z,22.30
2023-04-08T08:08:56.951Z,22.90
2023-04-08T08:09:57.221Z,21.10
2023-04-08T08:10:57.496Z,22.40
2023-04-08T08:11:57.751Z,24.00
2023-04-08T08:12:58.021Z,23.80
2023-04-08T08:13:58.310Z,23.80
2023-04-08T08:14:58.574Z,29.80
2023-04-08T08:15:58.858Z,27.10
2023-04-08T08:16:59.884Z,26.10
2023-04-08T08:17:59.539Z,24.90
2023-04-08T08:18:59.791Z,25.90
2023-04-08T08:20:00.058Z,26.00
2023-04-08T08:21:00.428Z,27.80
2023-04-08T08:22:00.555Z,25.10
2023-04-08T08:23:00.855Z,24.50
2023-04-08T08:24:01.182Z,24.00
2023-04-08T08:25:01.433Z,23.80
2023-04-08T08:26:01.719Z,23.80
2023-04-08T08:27:02.004Z,23.40
2023-04-08T08:28:02.257Z,25.20
2023-04-08T08:29:02.532Z,26.30
2023-04-08T08:30:02.836Z,24.40
2023-04-08T08:31:03.091Z,26.20
2023-04-08T08:32:03.348Z,23.80
2023-04-08T08:33:03.662Z,21.50
2023-04-08T08:34:03.908Z,22.40
2023-04-08T08:35:04.196Z,23.80
2023-04-08T08:36:04.541Z,23.20
2023-04-08T08:37:04.825Z,22.20
2023-04-08T08:38:05.131Z,22.60
2023-04-08T08:39:05.442Z,23.00
2023-04-08T08:40:05.726Z,24.20
2023-04-08T08:41:06.001Z,23.80
2023-04-08T08:42:06.287Z,25.20
2023-04-08T08:43:06.595Z,24.00
2023-04-08T08:44:06.873Z,23.10
2023-04-08T08:45:07.115Z,26.20
2023-04-08T08:46:07.372Z,24.80
2023-04-08T08:47:07.648Z,24.70
2023-04-08T08:48:07.927Z,25.10
2023-04-08T08:49:08.190Z,24.50
2023-04-08T08:50:08.448Z,24.70
2023-04-08T08:51:08.709Z,24.50
2023-04-08T08:52:09.045Z,27.20
2023-04-08T08:53:09.326Z,24.80
2023-04-08T08:54:09.608Z,23.20
2023-04-08T08:55:27.723Z,23.80
2023-04-08T08:56:17.141Z,27.50
2023-04-08T08:57:11.432Z,25.80
2023-04-08T08:58:10.778Z,24.10
2023-04-08T08:59:11.045Z,23.20
2023-04-08T09:00:11.350Z,24.70
2023-04-08T09:01:12.471Z,27.40
2023-04-08T09:02:12.003Z,28.70
2023-04-08T09:03:12.588Z,32.60
2023-04-08T09:04:12.878Z,32.30
2023-04-08T09:05:12.934Z,33.80
2023-04-08T09:06:13.092Z,31.30
2023-04-08T09:07:13.399Z,34.70
2023-04-08T09:08:13.780Z,31.70
2023-04-08T09:09:13.965Z,30.90
2023-04-08T09:10:14.343Z,30.70
2023-04-08T09:11:14.574Z,29.40
2023-04-08T09:12:16.020Z,30.90
2023-04-08T09:13:15.108Z,32.20
2023-04-08T09:14:15.336Z,31.10
2023-04-08T09:15:15.699Z,30.80
2023-04-08T09:16:16.078Z,31.70
2023-04-08T09:17:16.293Z,35.60
2023-04-08T09:18:17.817Z,35.00
2023-04-08T09:19:16.818Z,35.10
2023-04-08T09:20:17.077Z,37.40
2023-04-08T09:21:17.357Z,36.50
2023-04-08T09:22:17.583Z,37.40
2023-04-08T09:23:17.881Z,34.20
2023-04-08T09:24:18.168Z,36.30
2023-04-08T09:25:18.452Z,41.30
2023-04-08T09:26:18.703Z,37.60
2023-04-08T09:27:18.974Z,40.10
2023-04-08T09:28:19.255Z,39.60
2023-04-08T09:30:20.769Z,39.80
2023-04-08T09:31:20.153Z,37.20
2023-04-08T09:32:20.370Z,36.50
2023-04-08T09:33:20.711Z,36.50
2023-04-08T09:34:20.964Z,34.70
2023-04-08T09:35:21.239Z,37.10
2023-04-08T09:36:21.484Z,34.60
2023-04-08T09:37:21.767Z,36.00
2023-04-08T09:38:22.087Z,34.10
2023-04-08T09:39:22.377Z,34.90
2023-04-08T09:40:22.657Z,40.40
2023-04-08T09:41:22.905Z,40.50
2023-04-08T09:42:23.217Z,38.90
2023-04-08T09:43:23.521Z,36.70
2023-04-08T09:44:23.787Z,38.20
2023-04-08T09:45:24.125Z,38.30
2023-04-08T09:46:24.341Z,37.20
2023-04-08T09:47:24.630Z,37.50
2023-04-08T09:48:24.941Z,40.90
2023-04-08T09:49:25.181Z,39.80
2023-04-08T09:50:25.569Z,40.30
2023-04-08T09:51:25.702Z,36.40
2023-04-08T09:52:25.982Z,40.80
2023-04-08T09:53:26.278Z,39.20
2023-04-08T09:54:26.566Z,39.30
2023-04-08T09:55:26.824Z,38.00
2023-04-08T09:56:28.016Z,37.60
2023-04-08T09:57:27.360Z,40.70
2023-04-08T09:58:27.656Z,38.50
2023-04-08T09:59:27.898Z,37.60
2023-04-08T10:00:28.209Z,37.30
2023-04-08T10:01:28.580Z,37.90
2023-04-08T10:02:28.851Z,41.10
2023-04-08T10:03:29.295Z,38.20
2023-04-08T10:04:29.435Z,38.30
2023-04-08T10:05:29.534Z,38.60
2023-04-08T10:06:29.836Z,38.40
2023-04-08T10:07:30.082Z,38.50
2023-04-08T10:08:30.400Z,35.60
2023-04-08T10:09:30.687Z,34.40
2023-04-08T10:10:30.966Z,34.90
2023-04-08T10:11:31.232Z,35.80
2023-04-08T10:12:31.496Z,34.40
2023-04-08T10:13:31.830Z,39.40
2023-04-08T10:14:32.059Z,34.70
2023-04-08T10:15:32.333Z,36.20
2023-04-08T10:16:32.645Z,39.60
2023-04-08T10:17:32.945Z,35.00
2023-04-08T10:18:33.204Z,35.60
2023-04-08T10:19:33.470Z,37.70
2023-04-08T10:20:33.741Z,37.40
2023-04-08T10:21:34.014Z,39.20
2023-04-08T10:22:34.295Z,36.40
2023-04-08T10:23:34.625Z,37.30
2023-04-08T10:24:34.899Z,41.20
2023-04-08T10:25:35.198Z,36.60
2023-04-08T10:26:35.482Z,39.70
2023-04-08T10:27:35.755Z,39.60
2023-04-08T10:28:36.076Z,39.30
2023-04-08T10:29:36.370Z,38.60
2023-04-08T10:30:36.739Z,40.10
2023-04-08T10:31:36.923Z,39.10
2023-04-08T10:32:37.261Z,37.90
2023-04-08T10:33:40.694Z,37.90
2023-04-08T10:34:37.800Z,35.60
2023-04-08T10:35:38.125Z,33.40
2023-04-08T10:36:38.391Z,32.70
2023-04-08T10:37:38.729Z,33.10
2023-04-08T10:38:39.034Z,34.10
2023-04-08T10:39:39.342Z,33.60
2023-04-08T10:40:39.674Z,34.60
2023-04-08T10:41:39.992Z,32.80
2023-04-08T10:42:40.258Z,32.60
2023-04-08T10:43:40.594Z,32.20
2023-04-08T10:44:40.902Z,30.80
2023-04-08T10:45:41.257Z,25.10
2023-04-08T10:46:41.594Z,24.80
2023-04-08T10:47:41.957Z,26.20
2023-04-08T10:48:42.136Z,28.60
2023-04-08T10:49:42.413Z,30.20
2023-04-08T10:50:42.675Z,30.40
2023-04-08T10:51:42.959Z,27.90
2023-04-08T10:52:43.251Z,25.70
2023-04-08T10:53:43.553Z,28.20
2023-04-08T10:54:43.839Z,26.30
2023-04-08T10:55:44.153Z,27.90
2023-04-08T10:56:44.453Z,29.10
2023-04-08T10:57:44.747Z,25.90
2023-04-08T10:58:45.063Z,26.90
2023-04-08T10:59:45.370Z,25.80
2023-04-08T11:00:45.677Z,26.30
2023-04-08T11:01:46.015Z,24.10
2023-04-08T11:02:46.374Z,25.90
2023-04-08T11:03:46.728Z,26.30
2023-04-08T11:04:46.844Z,25.90
2023-04-08T11:05:47.105Z,26.70
2023-04-08T11:06:47.456Z,26.40
2023-04-08T11:07:47.643Z,26.20
2023-04-08T11:08:47.935Z,24.70
2023-04-08T11:09:48.207Z,26.90
2023-04-08T11:10:48.537Z,26.40
2023-04-08T11:11:48.810Z,25.60
2023-04-08T11:12:49.118Z,25.50
2023-04-08T11:13:53.320Z,26.80
2023-04-08T11:14:49.706Z,25.50
2023-04-08T11:15:50.033Z,25.00
2023-04-08T11:16:50.198Z,23.10
2023-04-08T11:17:50.492Z,24.30
2023-04-08T11:18:50.811Z,24.70
2023-04-08T11:19:51.057Z,23.30
2023-04-08T11:20:51.368Z,24.20
2023-04-08T11:21:51.684Z,25.30
2023-04-08T11:22:51.976Z,22.70
2023-04-08T11:23:52.398Z,26.00
2023-04-08T11:24:52.475Z,23.40
2023-04-08T11:25:52.784Z,22.40
2023-04-08T11:26:53.115Z,26.10
2023-04-08T11:27:53.256Z,23.70
2023-04-08T11:28:53.587Z,24.70
2023-04-08T11:29:53.979Z,25.20
2023-04-08T11:30:54.158Z,24.40
2023-04-08T11:31:54.389Z,22.60
2023-04-08T11:32:54.709Z,22.80
2023-04-08T11:33:54.966Z,21.80
2023-04-08T11:34:55.234Z,22.40
2023-04-08T11:35:55.551Z,23.00
2023-04-08T11:36:55.718Z,22.60
2023-04-08T11:37:56.027Z,24.00
2023-04-08T11:38:56.319Z,22.20
2023-04-08T11:39:56.611Z,21.40
2023-04-08T11:40:56.893Z,21.30
2023-04-08T11:41:57.129Z,22.10
2023-04-08T11:42:57.416Z,21.20
2023-04-08T11:43:57.707Z,23.10
2023-04-08T11:44:57.985Z,21.60
2023-04-08T11:45:58.316Z,21.30
2023-04-08T11:46:58.557Z,21.30
2023-04-08T11:47:58.852Z,20.70
2023-04-08T11:48:59.153Z,20.90
2023-04-08T11:49:59.443Z,22.20
2023-04-08T11:50:59.740Z,20.80
2023-04-08T11:52:00.021Z,20.60
2023-04-08T11:53:00.275Z,23.00
2023-04-08T11:54:00.562Z,22.00
2023-04-08T11:55:00.828Z,21.00
2023-04-08T11:56:01.237Z,20.50
2023-04-08T11:57:01.439Z,19.40
2023-04-08T11:58:01.747Z,21.00
2023-04-08T11:59:02.061Z,19.50
2023-04-08T12:00:02.350Z,18.40
2023-04-08T12:01:02.619Z,19.60
2023-04-08T12:02:02.923Z,19.20
2023-04-08T12:03:03.231Z,21.10
2023-04-08T12:04:03.601Z,20.40
2023-04-08T12:05:03.774Z,20.50
2023-04-08T12:06:04.042Z,21.30
2023-04-08T12:07:04.305Z,21.50
2023-04-08T12:08:04.642Z,21.30
2023-04-08T12:09:04.934Z,20.10
2023-04-08T12:10:05.214Z,21.90
2023-04-08T12:11:16.858Z,21.10
2023-04-08T12:12:06.755Z,21.20
2023-04-08T12:13:05.989Z,19.60
2023-04-08T12:14:06.254Z,18.70
2023-04-08T12:15:06.486Z,19.40
2023-04-08T12:16:06.818Z,19.90
2023-04-08T12:17:07.020Z,18.70
2023-04-08T12:18:07.395Z,19.40
2023-04-08T12:19:07.674Z,20.10
2023-04-08T12:20:07.962Z,20.30
2023-04-08T12:21:08.303Z,19.50
2023-04-08T12:22:08.586Z,20.10
2023-04-08T12:23:08.871Z,20.00
2023-04-08T12:24:09.175Z,20.70
2023-04-08T12:25:10.206Z,19.30
2023-04-08T12:26:09.757Z,20.10
2023-04-08T12:27:10.136Z,20.10
2023-04-08T12:28:10.301Z,19.80
2023-04-08T12:29:10.583Z,20.30
2023-04-08T12:30:10.961Z,20.90
2023-04-08T12:31:11.088Z,20.90
2023-04-08T12:32:11.383Z,21.30
2023-04-08T12:33:12.364Z,21.50
2023-04-08T12:34:11.939Z,19.10
2023-04-08T12:35:12.244Z,17.30
2023-04-08T12:36:13.661Z,18.20
2023-04-08T12:37:12.793Z,18.00
2023-04-08T12:38:13.055Z,18.70
2023-04-08T12:39:13.367Z,18.90
2023-04-08T12:40:13.617Z,19.50
2023-04-08T12:41:13.891Z,18.10
2023-04-08T12:42:14.169Z,19.80
2023-04-08T12:43:14.471Z,20.40
2023-04-08T12:44:14.726Z,19.60
2023-04-08T12:45:15.000Z,23.80
2023-04-08T12:46:15.287Z,21.10
2023-04-08T12:47:15.778Z,24.70
2023-04-08T12:48:15.922Z,20.70
2023-04-08T12:49:16.202Z,20.20
2023-04-08T12:50:16.466Z,21.30
2023-04-08T12:51:16.718Z,21.30
2023-04-08T12:52:17.034Z,19.40
2023-04-08T12:53:17.309Z,20.90
2023-04-08T12:54:17.587Z,20.80
2023-04-08T12:55:17.848Z,19.90
2023-04-08T12:56:18.159Z,19.70
2023-04-08T12:57:18.420Z,19.30